Time;durP1;ratioP1;P1;durP2;ratioP2;P2;SDS_P1;SDS_P2;PMS_P1;PMS_P2;Temp;Humidity;BMP_temperature;BMP_pressure;BME280_temperature;BME280_humidity;BME280_pressure;Samples;Min_cycle;Max_cycle;Signal;HPM_P1;HPM_P2
2021/09/11 00:00:27;;;;;;;31.93;28.50;;;17.10;99.90;;;;;;5076972;28;20469;-84
2021/09/11 00:02:54;;;;;;;30.93;27.80;;;18.30;99.90;;;;;;5078798;28;20453;-83
2021/09/11 00:05:22;;;;;;;35.90;29.53;;;18.30;99.90;;;;;;5078795;28;20854;-84
2021/09/11 00:07:50;;;;;;;36.70;27.90;;;18.30;99.90;;;;;;5079192;28;20604;-84
2021/09/11 00:10:18;;;;;;;35.70;29.90;;;18.30;99.90;;;;;;5079017;28;20532;-84
2021/09/11 00:12:45;;;;;;;33.90;27.20;;;18.30;99.90;;;;;;5078407;28;20449;-83
2021/09/11 00:15:14;;;;;;;29.63;26.10;;;18.20;99.90;;;;;;5079065;28;20441;-84
2021/09/11 00:17:42;;;;;;;32.20;28.70;;;18.20;99.90;;;;;;5078446;28;20465;-84
2021/09/11 00:20:11;;;;;;;29.80;26.60;;;18.20;99.90;;;;;;5078050;28;20501;-84
2021/09/11 00:22:38;;;;;;;31.90;26.57;;;18.20;99.90;;;;;;5077731;28;20503;-84
2021/09/11 00:25:07;;;;;;;29.67;24.70;;;18.20;99.90;;;;;;5077702;28;20480;-84
2021/09/11 00:27:34;;;;;;;27.77;24.80;;;18.20;99.90;;;;;;5076993;28;20522;-83
2021/09/11 00:30:00;;;;;;;28.13;25.00;;;18.20;99.90;;;;;;5077162;28;20481;-84
2021/09/11 00:32:27;;;;;;;29.77;26.00;;;18.20;99.90;;;;;;5076038;28;20968;-82
2021/09/11 00:34:53;;;;;;;30.30;25.87;;;18.20;99.90;;;;;;5077077;28;20484;-83
2021/09/11 00:37:20;;;;;;;29.90;26.70;;;18.20;99.90;;;;;;5077127;28;20463;-83
2021/09/11 00:39:47;;;;;;;32.30;28.80;;;18.20;99.90;;;;;;5079760;28;20487;-82
2021/09/11 00:42:14;;;;;;;28.40;25.50;;;18.10;99.90;;;;;;5082263;28;20503;-83
2021/09/11 00:44:41;;;;;;;32.63;26.83;;;18.10;99.90;;;;;;5081418;28;20477;-83
2021/09/11 00:47:08;;;;;;;30.83;27.00;;;18.10;99.90;;;;;;5083218;28;20476;-83
2021/09/11 00:49:34;;;;;;;31.20;27.63;;;18.10;99.90;;;;;;5079993;28;20449;-84
2021/09/11 00:52:01;;;;;;;29.77;25.93;;;18.00;99.90;;;;;;5080540;28;20516;-84
2021/09/11 00:54:29;;;;;;;32.10;26.13;;;18.00;99.90;;;;;;5079856;28;20449;-84
2021/09/11 00:56:56;;;;;;;30.17;25.87;;;18.10;99.90;;;;;;5080013;28;20449;-83
2021/09/11 00:59:24;;;;;;;33.33;27.87;;;18.00;99.90;;;;;;5101510;22;20901;-87
2021/09/11 01:01:50;;;;;;;33.20;29.10;;;18.00;99.90;;;;;;5080388;28;20489;-87
2021/09/11 01:04:17;;;;;;;31.07;27.80;;;18.00;99.90;;;;;;5080300;28;20441;-87
2021/09/11 01:06:43;;;;;;;31.00;27.80;;;18.00;99.90;;;;;;5080520;28;20441;-87
2021/09/11 01:09:10;;;;;;;27.80;24.83;;;18.10;99.90;;;;;;5070373;28;20464;-87
2021/09/11 01:11:40;;;;;;;31.00;25.40;;;18.10;99.90;;;;;;5078301;28;20474;-86
2021/09/11 01:14:06;;;;;;;25.87;23.27;;;18.10;99.90;;;;;;5078483;28;20435;-86
2021/09/11 01:16:35;;;;;;;29.20;24.70;;;18.10;99.90;;;;;;5079555;28;20430;-86
2021/09/11 01:19:02;;;;;;;27.10;24.27;;;18.10;99.90;;;;;;5080498;28;20454;-87
2021/09/11 01:21:28;;;;;;;30.03;26.33;;;18.10;99.90;;;;;;5080404;28;20460;-86
2021/09/11 01:23:56;;;;;;;28.57;24.70;;;18.20;99.90;;;;;;5078447;28;20469;-87
2021/09/11 01:26:23;;;;;;;29.40;26.23;;;18.10;99.90;;;;;;5078690;28;20433;-86
2021/09/11 01:28:49;;;;;;;28.47;24.47;;;18.10;99.90;;;;;;5078587;28;20469;-86
2021/09/11 01:31:16;;;;;;;30.70;27.30;;;18.20;99.90;;;;;;5066072;28;20938;-86
2021/09/11 01:33:42;;;;;;;28.37;25.53;;;18.10;99.90;;;;;;5062160;28;20446;-86
2021/09/11 01:36:09;;;;;;;29.37;26.30;;;18.10;99.90;;;;;;5060866;28;20486;-86
2021/09/11 01:38:35;;;;;;;32.23;26.03;;;18.10;99.90;;;;;;5059971;28;20877;-86
2021/09/11 01:41:03;;;;;;;29.37;26.20;;;18.20;99.90;;;;;;5059905;28;20478;-86
2021/09/11 01:43:31;;;;;;;24.40;21.90;;;18.10;99.90;;;;;;5059112;28;20881;-86
2021/09/11 01:45:58;;;;;;;27.37;24.43;;;18.10;99.90;;;;;;5058854;28;20442;-86
2021/09/11 01:48:25;;;;;;;34.17;26.40;;;18.20;99.90;;;;;;5058438;28;20470;-86
2021/09/11 01:50:52;;;;;;;31.63;26.60;;;18.10;99.90;;;;;;5057326;28;20851;-86
2021/09/11 01:53:18;;;;;;;27.83;24.77;;;18.10;99.90;;;;;;5058928;28;20470;-86
2021/09/11 01:55:45;;;;;;;25.13;22.43;;;18.10;99.90;;;;;;5057900;28;20473;-86
2021/09/11 01:58:13;;;;;;;26.00;23.20;;;18.10;99.90;;;;;;5058953;28;20482;-86
2021/09/11 02:00:40;;;;;;;31.00;24.60;;;18.00;99.90;;;;;;5058420;28;20435;-86
2021/09/11 02:03:07;;;;;;;30.70;24.30;;;18.00;99.90;;;;;;5058787;28;20449;-87
2021/09/11 02:05:34;;;;;;;25.53;22.37;;;18.10;99.90;;;;;;5065054;28;20442;-87
2021/09/11 02:08:00;;;;;;;29.30;23.47;;;18.00;99.90;;;;;;5057904;28;20465;-86
2021/09/11 02:10:27;;;;;;;26.00;23.30;;;18.00;99.90;;;;;;5056834;28;20536;-86
2021/09/11 02:12:54;;;;;;;26.47;22.90;;;18.00;99.90;;;;;;5057816;28;20805;-86
2021/09/11 02:15:22;;;;;;;24.87;21.93;;;18.00;99.90;;;;;;5057129;28;20469;-85
2021/09/11 02:17:48;;;;;;;24.07;21.50;;;18.00;99.90;;;;;;5056647;28;20524;-86
2021/09/11 02:20:15;;;;;;;24.40;21.97;;;18.00;99.90;;;;;;5056836;28;20482;-86
2021/09/11 02:22:42;;;;;;;26.10;23.37;;;18.00;99.90;;;;;;5057297;28;20485;-87
2021/09/11 02:25:09;;;;;;;31.77;25.83;;;18.00;99.90;;;;;;5038793;28;20478;-86
2021/09/11 02:27:38;;;;;;;27.27;24.40;;;18.00;99.90;;;;;;5056317;28;21032;-87
2021/09/11 02:30:05;;;;;;;29.53;24.50;;;18.00;99.90;;;;;;5056683;28;20474;-87
2021/09/11 02:32:33;;;;;;;26.70;23.27;;;18.00;99.90;;;;;;5056467;28;20559;-87
2021/09/11 02:35:00;;;;;;;27.20;24.40;;;17.90;99.90;;;;;;5056162;28;20503;-87
2021/09/11 02:37:26;;;;;;;23.87;21.27;;;18.10;99.90;;;;;;5056586;28;20450;-87
2021/09/11 02:39:53;;;;;;;26.03;23.40;;;17.90;99.90;;;;;;5056620;28;20450;-87
2021/09/11 02:42:19;;;;;;;23.30;20.90;;;17.90;99.90;;;;;;5056701;28;20533;-87
2021/09/11 02:44:46;;;;;;;25.00;22.40;;;18.00;99.90;;;;;;5056466;28;20833;-86
2021/09/11 02:47:13;;;;;;;24.30;21.77;;;17.90;99.90;;;;;;5056470;28;20508;-87
2021/09/11 02:49:42;;;;;;;25.47;22.50;;;17.80;99.90;;;;;;5056443;28;20446;-87
2021/09/11 02:52:08;;;;;;;26.73;23.93;;;17.90;99.90;;;;;;5056802;28;20482;-87
2021/09/11 02:54:35;;;;;;;27.03;23.67;;;17.80;99.90;;;;;;5057499;28;20442;-86
2021/09/11 02:57:01;;;;;;;25.80;23.17;;;17.80;99.90;;;;;;5056361;28;20496;-87
2021/09/11 02:59:28;;;;;;;28.03;22.40;;;17.80;99.90;;;;;;5056786;28;20470;-86
2021/09/11 03:01:54;;;;;;;25.20;21.93;;;17.80;99.90;;;;;;5055488;28;20516;-87
2021/09/11 03:04:21;;;;;;;27.60;22.00;;;17.80;99.90;;;;;;5055918;28;20446;-87
2021/09/11 03:06:49;;;;;;;25.03;21.17;;;17.80;99.90;;;;;;5056677;28;20486;-87
2021/09/11 03:09:15;;;;;;;23.67;21.27;;;17.80;99.90;;;;;;5055370;28;20474;-87
2021/09/11 03:11:42;;;;;;;21.47;19.37;;;17.80;99.90;;;;;;5056024;28;20535;-87
2021/09/11 03:14:09;;;;;;;25.30;22.70;;;17.70;99.90;;;;;;5055801;28;20499;-87
2021/09/11 03:16:35;;;;;;;23.33;20.83;;;17.70;99.90;;;;;;5056045;28;20821;-87
2021/09/11 03:19:02;;;;;;;24.17;21.67;;;17.80;99.90;;;;;;5057092;28;20470;-86
2021/09/11 03:21:28;;;;;;;25.07;22.33;;;17.70;99.90;;;;;;5056825;28;20465;-86
2021/09/11 03:23:56;;;;;;;25.60;21.17;;;17.70;99.90;;;;;;5056347;28;20500;-87
2021/09/11 03:26:23;;;;;;;23.37;20.80;;;17.70;99.90;;;;;;5056573;28;20450;-86
2021/09/11 03:28:49;;;;;;;24.57;21.97;;;17.70;99.90;;;;;;5055314;28;21006;-86
2021/09/11 03:31:16;;;;;;;25.13;22.20;;;17.70;99.90;;;;;;5055559;28;20505;-86
2021/09/11 03:33:42;;;;;;;26.23;22.27;;;17.70;99.90;;;;;;5062988;28;20454;-85
2021/09/11 03:36:09;;;;;;;23.93;21.37;;;17.70;99.90;;;;;;5060903;28;20481;-86
2021/09/11 03:38:36;;;;;;;22.83;20.43;;;17.70;99.90;;;;;;5056322;28;20516;-86
2021/09/11 03:41:03;;;;;;;26.87;22.23;;;17.70;99.90;;;;;;5056816;28;20500;-86
2021/09/11 03:43:30;;;;;;;25.73;23.13;;;17.70;99.90;;;;;;5064440;28;20467;-85
2021/09/11 03:45:57;;;;;;;24.47;21.97;;;17.70;99.90;;;;;;5060996;28;20453;-86
2021/09/11 03:48:23;;;;;;;24.30;21.80;;;17.70;99.90;;;;;;5056651;28;20507;-86
2021/09/11 03:50:50;;;;;;;24.43;21.83;;;17.70;99.90;;;;;;5065778;28;20446;-86
2021/09/11 03:53:17;;;;;;;26.50;23.63;;;17.70;99.90;;;;;;5068701;28;20469;-86
2021/09/11 03:55:43;;;;;;;25.93;23.20;;;17.60;99.90;;;;;;5058486;28;20494;-87
2021/09/11 03:58:13;;;;;;;30.03;24.93;;;17.60;99.90;;;;;;5057221;28;20524;-87
2021/09/11 04:00:40;;;;;;;26.27;23.53;;;17.30;99.90;;;;;;5057629;28;20848;-87
2021/09/11 04:03:07;;;;;;;27.40;24.60;;;17.60;99.90;;;;;;5057330;28;20450;-87
2021/09/11 04:05:33;;;;;;;26.00;23.30;;;17.60;99.90;;;;;;5057921;28;20442;-86
2021/09/11 04:08:00;;;;;;;27.40;22.37;;;17.60;99.90;;;;;;5058437;28;20474;-87
2021/09/11 04:10:26;;;;;;;27.20;24.30;;;17.60;99.90;;;;;;5058595;28;20833;-87
2021/09/11 04:12:53;;;;;;;29.40;24.80;;;17.50;99.90;;;;;;5058832;28;20856;-87
2021/09/11 04:15:21;;;;;;;28.20;25.10;;;17.60;99.90;;;;;;5061213;28;20482;-87
2021/09/11 04:17:47;;;;;;;26.73;23.67;;;17.60;99.90;;;;;;5062670;28;21029;-87
2021/09/11 04:20:14;;;;;;;27.87;24.80;;;17.60;99.90;;;;;;5062754;28;20453;-87
2021/09/11 04:22:41;;;;;;;28.13;23.57;;;17.60;99.90;;;;;;5069458;28;20478;-86
2021/09/11 04:25:08;;;;;;;26.67;23.90;;;17.50;99.90;;;;;;5064208;28;20464;-86
2021/09/11 04:27:35;;;;;;;31.23;25.03;;;17.60;99.90;;;;;;5061356;28;20499;-87
2021/09/11 04:30:02;;;;;;;26.30;22.47;;;17.60;99.90;;;;;;5060375;28;21019;-87
2021/09/11 04:32:30;;;;;;;29.17;26.03;;;17.60;99.90;;;;;;5060306;28;20504;-87
2021/09/11 04:34:56;;;;;;;29.03;25.17;;;17.60;99.90;;;;;;5062114;28;20508;-87
2021/09/11 04:37:23;;;;;;;27.50;24.47;;;17.30;99.90;;;;;;5077191;28;20441;-87
2021/09/11 04:39:49;;;;;;;28.20;24.27;;;17.60;99.90;;;;;;5078401;28;20442;-86
2021/09/11 04:42:16;;;;;;;26.13;23.43;;;17.60;99.90;;;;;;5077757;28;20468;-86
2021/09/11 04:44:42;;;;;;;27.93;24.40;;;17.60;99.90;;;;;;5076635;28;20453;-86
2021/09/11 04:47:09;;;;;;;27.87;24.87;;;17.50;99.90;;;;;;5078242;28;20439;-86
2021/09/11 04:49:37;;;;;;;37.33;33.30;;;17.70;99.90;;;;;;5078383;28;20530;-86
2021/09/11 04:52:04;;;;;;;36.73;31.77;;;17.70;99.90;;;;;;5077157;28;20520;-86
2021/09/11 04:54:31;;;;;;;25.83;23.13;;;17.70;99.90;;;;;;5075161;28;20981;-86
2021/09/11 04:56:57;;;;;;;29.97;25.30;;;17.70;99.90;;;;;;5075399;28;20469;-86
2021/09/11 04:59:25;;;;;;;27.00;24.20;;;17.70;99.90;;;;;;5075387;28;20848;-87
2021/09/11 05:01:52;;;;;;;30.30;27.20;;;17.70;99.90;;;;;;5064545;28;20450;-87
2021/09/11 05:04:19;;;;;;;29.93;26.87;;;17.70;99.90;;;;;;5063506;28;20450;-87
2021/09/11 05:06:47;;;;;;;30.37;25.37;;;17.80;99.90;;;;;;5063908;28;20872;-87
2021/09/11 05:09:13;;;;;;;27.27;23.90;;;17.80;99.90;;;;;;5061794;28;20470;-87
2021/09/11 05:11:40;;;;;;;31.00;27.20;;;17.80;99.90;;;;;;5061410;28;20524;-87
2021/09/11 05:14:06;;;;;;;23.87;21.23;;;17.80;99.90;;;;;;5059360;28;20794;-87
2021/09/11 05:16:33;;;;;;;26.60;23.80;;;17.80;99.90;;;;;;5060135;28;20504;-87
2021/09/11 05:18:59;;;;;;;24.17;21.57;;;17.80;99.90;;;;;;5060539;28;20528;-86
2021/09/11 05:21:26;;;;;;;27.63;24.60;;;17.80;99.90;;;;;;5061869;28;20954;-86
2021/09/11 05:23:54;;;;;;;26.80;23.87;;;17.80;99.90;;;;;;5060810;28;20446;-87
2021/09/11 05:26:21;;;;;;;28.47;24.40;;;17.90;99.90;;;;;;5058947;28;20853;-87
2021/09/11 05:28:47;;;;;;;33.53;29.83;;;17.90;99.90;;;;;;5060038;28;20568;-87
2021/09/11 05:31:14;;;;;;;43.73;38.27;;;17.90;99.90;;;;;;5064240;28;20446;-86
2021/09/11 05:33:40;;;;;;;41.03;36.40;;;17.90;99.90;;;;;;5061813;28;20477;-87
2021/09/11 05:36:07;;;;;;;28.93;25.80;;;18.00;99.90;;;;;;5061576;28;20454;-87
2021/09/11 05:38:33;;;;;;;30.67;26.27;;;18.10;99.90;;;;;;5062118;28;20466;-87
2021/09/11 05:41:01;;;;;;;26.93;24.13;;;18.00;99.90;;;;;;5062354;28;20446;-87
2021/09/11 05:43:28;;;;;;;30.93;24.93;;;18.10;99.90;;;;;;5062474;28;20442;-87
2021/09/11 05:45:55;;;;;;;56.30;45.03;;;;;;;;;;5060941;28;20966;-87
2021/09/11 05:48:22;;;;;;;41.97;36.10;;;18.10;99.90;;;;;;5059817;28;20884;-87
2021/09/11 05:50:48;;;;;;;30.73;26.87;;;18.20;99.90;;;;;;5059558;28;20450;-87
2021/09/11 05:53:15;;;;;;;36.10;30.67;;;18.20;99.90;;;;;;5061907;28;20478;-87
2021/09/11 05:55:42;;;;;;;30.50;27.27;;;18.20;99.90;;;;;;5060022;28;20450;-87
2021/09/11 05:58:09;;;;;;;29.80;25.10;;;18.20;99.90;;;;;;5058769;28;20508;-87
2021/09/11 06:00:36;;;;;;;27.47;24.07;;;18.20;99.90;;;;;;5059149;28;20508;-88
2021/09/11 06:03:03;;;;;;;30.43;24.93;;;18.30;99.90;;;;;;5059328;28;20446;-87
2021/09/11 06:05:30;;;;;;;27.83;24.80;;;18.30;99.90;;;;;;5059341;28;20452;-87
2021/09/11 06:07:56;;;;;;;30.87;26.43;;;18.30;99.90;;;;;;5059640;28;20466;-87
2021/09/11 06:10:23;;;;;;;29.30;24.70;;;18.40;99.90;;;;;;5060028;28;20500;-87
2021/09/11 06:12:49;;;;;;;28.70;23.17;;;18.40;99.90;;;;;;5060113;28;20482;-87
2021/09/11 06:15:17;;;;;;;25.13;22.43;;;18.40;99.90;;;;;;5062298;28;20434;-87
2021/09/11 06:17:44;;;;;;;23.97;21.47;;;18.40;99.90;;;;;;5059133;28;20466;-87
2021/09/11 06:20:11;;;;;;;24.53;21.93;;;18.40;99.90;;;;;;5073523;28;20426;-87
2021/09/11 06:22:38;;;;;;;25.63;22.67;;;18.40;99.90;;;;;;5079594;28;20484;-88
2021/09/11 06:25:07;;;;;;;27.73;23.13;;;18.40;99.90;;;;;;5079940;28;20438;-88
2021/09/11 06:27:34;;;;;;;28.55;24.38;;;18.50;99.90;;;;;;5067849;28;20489;-87
2021/09/11 06:30:01;;;;;;;28.93;25.13;;;18.40;99.90;;;;;;5061051;28;20207;-87
2021/09/11 06:32:30;;;;;;;27.20;23.00;;;18.40;99.90;;;;;;5061198;28;20482;-87
2021/09/11 06:34:56;;;;;;;28.13;23.50;;;18.40;99.90;;;;;;5060766;28;20616;-87
2021/09/11 06:37:23;;;;;;;27.50;24.00;;;18.60;99.90;;;;;;5060501;28;20446;-87
2021/09/11 06:39:50;;;;;;;28.40;23.80;;;18.40;99.90;;;;;;5065136;28;20446;-86
2021/09/11 06:42:19;;;;;;;29.17;23.13;;;18.40;99.90;;;;;;5079040;28;20462;-88
2021/09/11 06:44:46;;;;;;;25.83;22.00;;;18.40;99.90;;;;;;5079879;28;20426;-88
2021/09/11 06:47:12;;;;;;;25.07;22.47;;;18.40;99.90;;;;;;5079736;28;20427;-88
2021/09/11 06:49:40;;;;;;;24.07;21.40;;;18.50;99.90;;;;;;5072121;28;20446;-86
2021/09/11 06:52:09;;;;;;;26.43;23.60;;;18.50;99.90;;;;;;5057641;28;20603;-86
2021/09/11 06:54:35;;;;;;;27.00;22.70;;;18.50;99.90;;;;;;5057568;28;20435;-86
2021/09/11 06:57:02;;;;;;;27.27;22.23;;;18.60;99.90;;;;;;5060353;28;20454;-86
2021/09/11 06:59:43;;;;;;;25.80;23.17;;;18.60;99.90;;;;;;5115875;23;20493;-86
2021/09/11 07:06:05;;;;;;;25.77;22.07;;;19.60;99.90;;;;;;5101407;28;20440;-86
2021/09/11 07:15:28;;;;;;;23.17;19.90;;;18.70;99.90;;;;;;5087427;28;20441;-86
2021/09/11 07:18:29;;;;;;;25.37;22.57;;;18.90;99.90;;;;;;5093897;28;20504;-85
2021/09/11 07:24:08;;;;;;;26.53;23.63;;;19.00;99.90;;;;;;5038047;28;20421;-86
2021/09/11 07:26:44;;;;;;;24.87;22.07;;;;;;;;;;5080424;28;20786;-86
2021/09/11 07:29:40;;;;;;;22.20;19.73;;;19.10;99.90;;;;;;5080310;28;20472;-86
2021/09/11 07:32:45;;;;;;;27.83;23.23;;;19.60;99.90;;;;;;5079162;28;20473;-86
2021/09/11 07:38:29;;;;;;;26.13;23.03;;;18.70;99.90;;;;;;5077576;28;20499;-86
2021/09/11 07:44:47;;;;;;;24.73;21.80;;;19.30;99.90;;;;;;5068649;28;20805;-86
2021/09/11 07:47:30;;;;;;;23.77;21.27;;;18.80;99.90;;;;;;5079644;28;20468;-86
2021/09/11 07:57:22;;;;;;;;;;;;;;;;;;;;;
2021/09/11 08:07:07;;;;;;;30.30;25.30;;;19.30;99.90;;;;;;4978548;28;20463;-86
2021/09/11 08:16:16;;;;;;;28.10;25.10;;;19.20;99.90;;;;;;5072899;28;20449;-86
2021/09/11 08:22:25;;;;;;;26.67;21.93;;;19.50;99.90;;;;;;5066766;28;20450;-86
2021/09/11 08:31:30;;;;;;;28.90;23.73;;;21.00;99.90;;;;;;5048283;28;20522;-86
2021/09/11 08:37:18;;;;;;;29.90;24.47;;;19.80;99.90;;;;;;5004829;28;20437;-86
2021/09/11 08:40:22;;;;;;;26.60;23.70;;;18.10;99.90;;;;;;5074831;28;20466;-86
2021/09/11 08:43:34;;;;;;;28.63;22.67;;;19.10;99.90;;;;;;5060550;28;20942;-85
2021/09/11 08:46:54;;;;;;;;;;;;;;;;;;;;;
2021/09/11 09:00:15;;;;;;;20.33;18.13;;;20.20;99.90;;;;;;4924662;29;20480;-86
2021/09/11 09:24:51;;;;;;;19.93;17.93;;;20.60;99.90;;;;;;4799670;29;20489;-86
2021/09/11 09:28:02;;;;;;;;;;;;;;;;;;;;;
2021/09/11 09:34:34;;;;;;;19.10;16.73;;;20.80;99.90;;;;;;5048372;28;20543;-86
2021/09/11 09:40:35;;;;;;;14.40;12.90;;;21.00;99.90;;;;;;5057522;28;20460;-86
2021/09/11 09:43:27;;;;;;;14.13;12.67;;;21.20;99.90;;;;;;5083196;28;20523;-86
2021/09/11 09:46:41;;;;;;;;;;;;;;;;;;;;;
2021/09/11 10:02:47;;;;;;;10.00;9.20;;;21.40;99.90;;;;;;5075699;28;20445;-86
2021/09/11 10:05:58;;;;;;;13.47;12.17;;;21.30;99.90;;;;;;5058458;28;20437;-86
2021/09/11 10:17:43;;;;;;;9.90;8.83;;;21.30;99.90;;;;;;5082448;28;20448;-86
2021/09/11 10:20:27;;;;;;;9.63;8.73;;;21.50;99.90;;;;;;5084401;28;20460;-86
2021/09/11 10:23:21;;;;;;;9.63;8.73;;;21.20;99.90;;;;;;5085018;28;20889;-87
2021/09/11 10:26:21;;;;;;;9.53;8.60;;;21.20;99.90;;;;;;5083125;28;20461;-87
2021/09/11 10:29:25;;;;;;;9.30;8.40;;;21.20;99.90;;;;;;5073310;28;20558;-87
2021/09/11 10:35:41;;;;;;;9.87;8.87;;;21.90;99.90;;;;;;5004502;28;20457;-87
2021/09/11 10:38:56;;;;;;;10.20;8.87;;;21.50;99.90;;;;;;5090213;28;20472;-86
2021/09/11 10:48:05;;;;;;;9.40;8.60;;;;;;;;;;5087691;28;20561;-86
2021/09/11 10:50:54;;;;;;;9.30;8.40;;;21.90;99.90;;;;;;5091450;28;20429;-86
2021/09/11 10:53:29;;;;;;;11.57;10.50;;;;;;;;;;5091690;28;20485;-85
2021/09/11 10:56:33;;;;;;;10.30;9.30;;;21.90;99.90;;;;;;5084169;28;20464;-86
2021/09/11 10:59:37;;;;;;;11.90;9.77;;;22.50;99.90;;;;;;5092015;28;20471;-85
2021/09/11 11:02:45;;;;;;;10.47;9.57;;;22.30;99.90;;;;;;5029499;28;20459;-86
2021/09/11 11:08:10;;;;;;;10.73;9.73;;;;;;;;;;5086132;28;20493;-86
2021/09/11 11:11:01;;;;;;;10.40;9.50;;;22.00;99.90;;;;;;5086213;28;20453;-85
2021/09/11 11:13:52;;;;;;;10.03;9.13;;;22.40;99.90;;;;;;5086897;28;20469;-86
2021/09/11 11:19:24;;;;;;;10.50;9.30;;;22.50;99.90;;;;;;5078312;28;20568;-87
2021/09/11 11:21:59;;;;;;;10.37;9.17;;;22.30;99.90;;;;;;5085592;28;20506;-87
2021/09/11 11:24:53;;;;;;;8.20;7.60;;;21.70;99.90;;;;;;5086088;28;20480;-85
2021/09/11 11:27:50;;;;;;;7.87;7.17;;;22.30;99.90;;;;;;5084592;28;20456;-85
2021/09/11 11:33:06;;;;;;;7.30;6.70;;;21.80;99.90;;;;;;5083694;28;20541;-86
2021/09/11 11:39:35;;;;;;;8.03;7.23;;;22.60;99.90;;;;;;5085221;28;20452;-86
2021/09/11 11:45:25;;;;;;;8.50;6.03;;;23.00;99.90;;;;;;5072842;28;20464;-86
2021/09/11 11:51:19;;;;;;;8.77;7.97;;;22.40;99.90;;;;;;5076956;28;20438;-86
2021/09/11 11:54:45;;;;;;;8.40;7.63;;;24.20;99.90;;;;;;5084267;28;20481;-85
2021/09/11 11:57:28;;;;;;;8.33;7.73;;;22.30;99.90;;;;;;5021942;28;20445;-86
2021/09/11 12:00:39;;;;;;;7.73;7.13;;;22.30;99.90;;;;;;5087324;28;20505;-86
2021/09/11 12:03:08;;;;;;;12.27;11.03;;;;;;;;;;5085903;28;20568;-87
2021/09/11 12:06:10;;;;;;;7.60;7.00;;;22.10;99.90;;;;;;5083775;28;20453;-86
2021/09/11 12:08:40;;;;;;;8.57;7.77;;;22.00;99.90;;;;;;5003564;28;20476;-86
2021/09/11 12:11:33;;;;;;;7.90;7.30;;;22.00;99.90;;;;;;5082370;28;20461;-86
2021/09/11 12:14:28;;;;;;;8.07;7.40;;;22.00;99.90;;;;;;5082081;28;20507;-86
2021/09/11 12:20:22;;;;;;;8.47;7.60;;;22.30;99.90;;;;;;5068030;28;20484;-86
2021/09/11 12:23:17;;;;;;;7.40;6.80;;;22.10;99.90;;;;;;5084692;28;20465;-86
2021/09/11 12:26:22;;;;;;;7.33;6.67;;;23.00;99.90;;;;;;5061303;28;20488;-86
2021/09/11 12:29:21;;;;;;;7.40;6.80;;;22.20;99.90;;;;;;5020896;28;20478;-86
2021/09/11 12:32:20;;;;;;;8.27;7.47;;;22.30;99.90;;;;;;5058786;28;20503;-86
2021/09/11 12:35:10;;;;;;;5.87;5.23;;;25.20;99.90;;;;;;5061897;28;20524;-86
2021/09/11 12:38:23;;;;;;;5.53;5.13;;;21.10;99.90;;;;;;5001598;28;20580;-86
2021/09/11 12:41:16;;;;;;;5.77;5.27;;;24.50;99.90;;;;;;4967850;28;20461;-86
2021/09/11 12:43:55;;;;;;;5.93;5.43;;;22.20;99.90;;;;;;5061661;28;20453;-86
2021/09/11 12:47:16;;;;;;;5.50;5.10;;;22.20;99.90;;;;;;5065711;28;20473;-86
2021/09/11 12:49:56;;;;;;;5.63;5.13;;;22.00;99.90;;;;;;5074130;28;20477;-85
2021/09/11 12:56:02;;;;;;;5.50;5.00;;;21.80;99.90;;;;;;5067327;28;20486;-86
2021/09/11 13:02:10;;;;;;;6.77;6.10;;;22.40;99.90;;;;;;5064141;28;20942;-85
2021/09/11 13:04:45;;;;;;;6.63;5.53;;;;;;;;;;5064686;28;20466;-86
2021/09/11 13:07:39;;;;;;;6.00;5.60;;;22.20;99.90;;;;;;5064947;28;20452;-86
2021/09/11 13:10:32;;;;;;;5.60;5.10;;;22.40;99.90;;;;;;5064527;28;20480;-86
2021/09/11 13:13:07;;;;;;;5.97;5.47;;;22.30;99.90;;;;;;5064042;28;20487;-86
2021/09/11 13:16:24;;;;;;;5.40;5.00;;;22.20;99.90;;;;;;5064623;28;20955;-86
2021/09/11 13:19:11;;;;;;;5.70;5.30;;;22.40;99.90;;;;;;5061458;28;20846;-85
2021/09/11 13:21:44;;;;;;;6.00;5.50;;;23.00;99.90;;;;;;5063745;28;20488;-86
2021/09/11 13:24:35;;;;;;;6.70;6.10;;;22.50;99.90;;;;;;5071324;28;20622;-85
2021/09/11 13:27:34;;;;;;;8.13;6.67;;;22.40;99.90;;;;;;5083548;28;20445;-85
2021/09/11 13:34:30;;;;;;;6.93;5.93;;;22.60;99.90;;;;;;5080758;28;20511;-85
2021/09/11 13:43:16;;;;;;;6.57;6.07;;;22.80;99.90;;;;;;5065622;28;20449;-85
2021/09/11 13:46:00;;;;;;;7.77;7.07;;;22.60;99.90;;;;;;5091685;28;20505;-85
2021/09/11 13:54:32;;;;;;;6.03;5.37;;;22.50;99.90;;;;;;5080169;28;20531;-86
2021/09/11 13:57:24;;;;;;;6.43;5.93;;;22.20;99.90;;;;;;5086917;28;20472;-85
2021/09/11 14:00:25;;;;;;;6.13;5.60;;;22.40;99.90;;;;;;5083752;28;20517;-86
2021/09/11 14:06:57;;;;;;;7.80;7.10;;;21.10;99.90;;;;;;5055437;28;20457;-87
2021/09/11 14:09:56;;;;;;;15.40;13.10;;;22.00;99.90;;;;;;5066768;28;21024;-86
2021/09/11 14:22:15;;;;;;;7.17;6.53;;;22.00;99.90;;;;;;5023299;28;20697;-86
2021/09/11 14:24:43;;;;;;;8.63;7.83;;;21.40;99.90;;;;;;5076167;28;20552;-86
2021/09/11 14:27:11;;;;;;;19.40;14.67;;;21.40;99.90;;;;;;5082129;28;20483;-85
2021/09/11 14:29:38;;;;;;;7.40;6.77;;;20.80;99.90;;;;;;5083926;28;20469;-83
2021/09/11 14:32:05;;;;;;;12.43;11.07;;;19.10;99.90;;;;;;5083634;28;20445;-83
2021/09/11 14:34:34;;;;;;;14.10;8.97;;;19.20;99.90;;;;;;5083672;28;20477;-84
2021/09/11 14:37:01;;;;;;;11.60;10.40;;;19.00;99.90;;;;;;5083957;28;20472;-83
2021/09/11 14:39:28;;;;;;;11.63;10.47;;;18.80;99.90;;;;;;5084248;28;20519;-83
2021/09/11 14:41:58;;;;;;;11.97;10.77;;;18.90;99.90;;;;;;5084825;28;20445;-84
2021/09/11 14:44:25;;;;;;;12.00;10.60;;;18.80;99.90;;;;;;5084561;28;20426;-84
2021/09/11 14:46:54;;;;;;;13.30;11.97;;;18.80;99.90;;;;;;5083580;28;20468;-84
2021/09/11 14:49:22;;;;;;;16.03;14.43;;;18.90;99.90;;;;;;5084666;28;20876;-84
2021/09/11 14:51:49;;;;;;;17.30;15.07;;;19.10;99.90;;;;;;5096738;28;20521;-84
2021/09/11 14:54:15;;;;;;;19.30;15.60;;;19.20;99.90;;;;;;5090987;28;20473;-84
2021/09/11 14:56:43;;;;;;;14.87;13.37;;;19.30;99.90;;;;;;5090016;28;20921;-83
2021/09/11 14:59:14;;;;;;;13.40;12.13;;;19.30;99.90;;;;;;5092667;28;20465;-83
2021/09/11 15:01:42;;;;;;;14.10;12.63;;;19.30;99.90;;;;;;5094820;28;20442;-84
2021/09/11 15:04:09;;;;;;;12.80;11.47;;;19.40;99.90;;;;;;5094585;28;20448;-83
2021/09/11 15:06:35;;;;;;;12.47;11.17;;;19.50;99.90;;;;;;5091149;28;20498;-83
2021/09/11 15:09:02;;;;;;;14.33;12.83;;;19.60;99.90;;;;;;5090625;28;20449;-84
2021/09/11 15:11:30;;;;;;;17.63;14.50;;;19.70;99.90;;;;;;5087960;28;20453;-84
2021/09/11 15:13:57;;;;;;;18.90;16.20;;;18.50;99.90;;;;;;5083858;28;20449;-83
2021/09/11 15:16:26;;;;;;;20.43;18.27;;;19.90;99.90;;;;;;5090818;28;20456;-83
2021/09/11 15:18:54;;;;;;;21.93;19.70;;;20.20;99.90;;;;;;5083536;28;20460;-83
2021/09/11 15:21:21;;;;;;;18.50;16.53;;;20.10;99.90;;;;;;5084162;28;20449;-83
2021/09/11 15:23:48;;;;;;;18.97;17.17;;;20.10;99.90;;;;;;5082033;28;20888;-83
2021/09/11 15:26:18;;;;;;;17.00;15.30;;;20.40;99.90;;;;;;5061476;28;20972;-85
2021/09/11 15:28:46;;;;;;;16.30;14.70;;;20.20;99.90;;;;;;5060904;28;20470;-84
2021/09/11 15:31:17;;;;;;;18.20;16.40;;;21.30;99.90;;;;;;5061847;28;20489;-84
2021/09/11 15:33:47;;;;;;;18.33;16.73;;;20.00;99.90;;;;;;5061913;28;20415;-84
2021/09/11 15:36:15;;;;;;;19.00;17.13;;;20.30;99.90;;;;;;5061766;28;20827;-84
2021/09/11 15:38:45;;;;;;;15.37;14.00;;;20.20;99.90;;;;;;5063151;28;21008;-84
2021/09/11 15:41:12;;;;;;;16.67;15.07;;;20.40;99.90;;;;;;5063078;28;20453;-84
2021/09/11 15:43:39;;;;;;;18.80;16.87;;;20.00;99.90;;;;;;5060927;28;20454;-84
2021/09/11 15:46:12;;;;;;;20.37;17.13;;;20.30;99.90;;;;;;5063113;28;20470;-83
2021/09/11 15:48:39;;;;;;;17.63;16.03;;;20.10;99.90;;;;;;5061923;28;20545;-83
2021/09/11 15:51:10;;;;;;;17.47;15.77;;;20.10;99.90;;;;;;5060521;28;20457;-83
2021/09/11 15:53:38;;;;;;;21.00;18.30;;;20.10;99.90;;;;;;5061931;28;20964;-84
2021/09/11 15:56:07;;;;;;;18.40;16.50;;;19.40;99.90;;;;;;5060783;28;20486;-83
2021/09/11 16:08:57;;;;;;;16.43;14.77;;;20.00;99.90;;;;;;5602989;23;20497;-85
2021/09/11 16:11:23;;;;;;;14.10;12.90;;;20.10;99.90;;;;;;5096519;28;20448;-85
2021/09/11 16:13:50;;;;;;;17.77;16.07;;;20.10;99.90;;;;;;5093913;28;20416;-85
2021/09/11 16:16:17;;;;;;;17.93;16.23;;;20.00;99.90;;;;;;5098978;28;20507;-86
2021/09/11 16:18:43;;;;;;;17.80;15.90;;;20.00;99.90;;;;;;5088643;28;20462;-85
2021/09/11 16:21:27;;;;;;;16.43;14.80;;;20.20;99.90;;;;;;5089900;23;20459;-83
2021/09/11 16:24:31;;;;;;;22.13;16.93;;;20.20;99.90;;;;;;5108155;28;20448;-82
2021/09/11 16:27:12;;;;;;;16.10;14.63;;;18.50;99.90;;;;;;5116424;28;20428;-83